sensor_id;sensor_type;location;lat;lon;timestamp;P1;durP1;ratioP1;P2;durP2;ratioP2
67861;SDS011;54665;51.462;6.698;2023-08-06T01:06:52;6.25;;;3.20;;
67861;SDS011;54665;51.462;6.698;2023-08-06T01:09:04;6.35;;;3.35;;
67861;SDS011;54665;51.462;6.698;2023-08-06T01:15:35;7.63;;;3.50;;
67861;SDS011;54665;51.462;6.698;2023-08-06T01:17:41;6.20;;;3.97;;
67861;SDS011;54665;51.462;6.698;2023-08-06T01:19:42;7.43;;;3.80;;
67861;SDS011;54665;51.462;6.698;2023-08-06T01:21:42;7.45;;;3.50;;
67861;SDS011;54665;51.462;6.698;2023-08-06T01:23:43;5.13;;;3.13;;
67861;SDS011;54665;51.462;6.698;2023-08-06T01:25:48;5.13;;;3.17;;
67861;SDS011;54665;51.462;6.698;2023-08-06T01:27:55;8.32;;;3.35;;
67861;SDS011;54665;51.462;6.698;2023-08-06T01:30:08;8.03;;;3.40;;
67861;SDS011;54665;51.462;6.698;2023-08-06T01:32:13;5.78;;;3.13;;
67861;SDS011;54665;51.462;6.698;2023-08-06T01:34:17;6.28;;;3.17;;
67861;SDS011;54665;51.462;6.698;2023-08-06T01:36:19;6.70;;;3.25;;
67861;SDS011;54665;51.462;6.698;2023-08-06T01:38:20;7.88;;;3.25;;
67861;SDS011;54665;51.462;6.698;2023-08-06T01:40:21;7.70;;;3.23;;
67861;SDS011;54665;51.462;6.698;2023-08-06T01:42:21;6.90;;;3.10;;
67861;SDS011;54665;51.462;6.698;2023-08-06T01:44:22;6.73;;;3.20;;
67861;SDS011;54665;51.462;6.698;2023-08-06T01:46:22;6.23;;;2.97;;
67861;SDS011;54665;51.462;6.698;2023-08-06T01:48:22;6.07;;;2.93;;
67861;SDS011;54665;51.462;6.698;2023-08-06T01:50:23;5.03;;;2.80;;
67861;SDS011;54665;51.462;6.698;2023-08-06T01:52:25;6.53;;;2.90;;
67861;SDS011;54665;51.462;6.698;2023-08-06T01:54:26;5.30;;;2.70;;
67861;SDS011;54665;51.462;6.698;2023-08-06T01:56:27;4.93;;;2.80;;
67861;SDS011;54665;51.462;6.698;2023-08-06T01:58:27;5.67;;;2.90;;
67861;SDS011;54665;51.462;6.698;2023-08-06T02:00:27;4.87;;;2.77;;
67861;SDS011;54665;51.462;6.698;2023-08-06T02:02:27;5.07;;;2.70;;
67861;SDS011;54665;51.462;6.698;2023-08-06T02:04:28;5.57;;;2.90;;
67861;SDS011;54665;51.462;6.698;2023-08-06T02:06:28;9.50;;;3.13;;
67861;SDS011;54665;51.462;6.698;2023-08-06T02:08:29;6.13;;;2.90;;
67861;SDS011;54665;51.462;6.698;2023-08-06T02:10:29;7.30;;;2.73;;
67861;SDS011;54665;51.462;6.698;2023-08-06T02:12:29;6.43;;;3.10;;
67861;SDS011;54665;51.462;6.698;2023-08-06T02:14:30;5.67;;;3.00;;
67861;SDS011;54665;51.462;6.698;2023-08-06T02:16:30;7.27;;;2.97;;
67861;SDS011;54665;51.462;6.698;2023-08-06T02:18:30;5.20;;;3.13;;
67861;SDS011;54665;51.462;6.698;2023-08-06T02:20:31;7.80;;;2.97;;
67861;SDS011;54665;51.462;6.698;2023-08-06T02:22:31;6.90;;;3.03;;
67861;SDS011;54665;51.462;6.698;2023-08-06T02:24:31;5.27;;;3.10;;
67861;SDS011;54665;51.462;6.698;2023-08-06T02:26:31;8.60;;;3.20;;
67861;SDS011;54665;51.462;6.698;2023-08-06T02:28:32;6.03;;;3.00;;
67861;SDS011;54665;51.462;6.698;2023-08-06T02:30:32;7.30;;;3.27;;
67861;SDS011;54665;51.462;6.698;2023-08-06T02:32:33;6.40;;;3.20;;
67861;SDS011;54665;51.462;6.698;2023-08-06T02:34:34;5.95;;;3.47;;
67861;SDS011;54665;51.462;6.698;2023-08-06T02:36:34;9.40;;;3.70;;
67861;SDS011;54665;51.462;6.698;2023-08-06T02:38:35;9.55;;;3.53;;
67861;SDS011;54665;51.462;6.698;2023-08-06T02:40:36;6.20;;;3.53;;
67861;SDS011;54665;51.462;6.698;2023-08-06T02:42:36;7.20;;;3.13;;
67861;SDS011;54665;51.462;6.698;2023-08-06T02:44:37;5.63;;;3.13;;
67861;SDS011;54665;51.462;6.698;2023-08-06T02:46:38;8.10;;;3.58;;
67861;SDS011;54665;51.462;6.698;2023-08-06T02:48:39;8.80;;;3.30;;
67861;SDS011;54665;51.462;6.698;2023-08-06T02:50:42;9.77;;;2.97;;
67861;SDS011;54665;51.462;6.698;2023-08-06T02:52:42;6.33;;;3.20;;
67861;SDS011;54665;51.462;6.698;2023-08-06T02:54:43;5.47;;;3.15;;
67861;SDS011;54665;51.462;6.698;2023-08-06T02:56:45;6.97;;;3.50;;
67861;SDS011;54665;51.462;6.698;2023-08-06T02:58:52;7.22;;;3.47;;
67861;SDS011;54665;51.462;6.698;2023-08-06T03:01:06;7.95;;;3.80;;
67861;SDS011;54665;51.462;6.698;2023-08-06T03:03:13;7.47;;;3.73;;
67861;SDS011;54665;51.462;6.698;2023-08-06T03:05:31;8.40;;;4.07;;
67861;SDS011;54665;51.462;6.698;2023-08-06T03:07:31;9.67;;;4.17;;
67861;SDS011;54665;51.462;6.698;2023-08-06T03:09:39;9.77;;;4.10;;
67861;SDS011;54665;51.462;6.698;2023-08-06T03:11:40;6.88;;;3.47;;
67861;SDS011;54665;51.462;6.698;2023-08-06T03:13:45;10.25;;;4.10;;
67861;SDS011;54665;51.462;6.698;2023-08-06T03:15:55;6.50;;;3.57;;
67861;SDS011;54665;51.462;6.698;2023-08-06T03:17:56;7.55;;;3.47;;
67861;SDS011;54665;51.462;6.698;2023-08-06T03:19:58;6.63;;;3.40;;
67861;SDS011;54665;51.462;6.698;2023-08-06T03:21:59;7.38;;;3.58;;
67861;SDS011;54665;51.462;6.698;2023-08-06T03:24:00;5.80;;;3.50;;
67861;SDS011;54665;51.462;6.698;2023-08-06T03:26:04;8.85;;;3.42;;
67861;SDS011;54665;51.462;6.698;2023-08-06T03:28:06;8.13;;;3.70;;
67861;SDS011;54665;51.462;6.698;2023-08-06T03:30:08;7.25;;;4.00;;
67861;SDS011;54665;51.462;6.698;2023-08-06T03:32:09;7.93;;;3.83;;
67861;SDS011;54665;51.462;6.698;2023-08-06T03:34:10;7.55;;;4.25;;
67861;SDS011;54665;51.462;6.698;2023-08-06T03:36:10;11.77;;;5.60;;
67861;SDS011;54665;51.462;6.698;2023-08-06T03:38:11;13.50;;;6.57;;
67861;SDS011;54665;51.462;6.698;2023-08-06T03:40:11;11.63;;;6.37;;
67861;SDS011;54665;51.462;6.698;2023-08-06T03:42:12;12.05;;;6.55;;
67861;SDS011;54665;51.462;6.698;2023-08-06T03:44:13;10.87;;;5.40;;
67861;SDS011;54665;51.462;6.698;2023-08-06T03:46:14;8.27;;;4.43;;
67861;SDS011;54665;51.462;6.698;2023-08-06T03:48:14;8.63;;;4.60;;
67861;SDS011;54665;51.462;6.698;2023-08-06T03:50:15;8.20;;;4.70;;
67861;SDS011;54665;51.462;6.698;2023-08-06T03:52:15;7.47;;;4.30;;
67861;SDS011;54665;51.462;6.698;2023-08-06T03:54:15;6.25;;;4.13;;
67861;SDS011;54665;51.462;6.698;2023-08-06T03:56:16;7.90;;;4.07;;
67861;SDS011;54665;51.462;6.698;2023-08-06T03:58:16;6.97;;;4.07;;
67861;SDS011;54665;51.462;6.698;2023-08-06T04:00:16;10.70;;;4.00;;
67861;SDS011;54665;51.462;6.698;2023-08-06T04:02:23;7.13;;;4.22;;
67861;SDS011;54665;51.462;6.698;2023-08-06T04:04:23;8.77;;;4.17;;
67861;SDS011;54665;51.462;6.698;2023-08-06T04:06:24;7.27;;;3.67;;
67861;SDS011;54665;51.462;6.698;2023-08-06T04:08:24;9.63;;;3.87;;
67861;SDS011;54665;51.462;6.698;2023-08-06T04:10:24;8.83;;;3.67;;
67861;SDS011;54665;51.462;6.698;2023-08-06T04:12:25;6.37;;;3.80;;
67861;SDS011;54665;51.462;6.698;2023-08-06T04:14:26;8.20;;;3.95;;
67861;SDS011;54665;51.462;6.698;2023-08-06T04:16:26;5.63;;;3.35;;
67861;SDS011;54665;51.462;6.698;2023-08-06T04:18:26;5.90;;;3.10;;
67861;SDS011;54665;51.462;6.698;2023-08-06T04:20:27;6.30;;;3.23;;
67861;SDS011;54665;51.462;6.698;2023-08-06T04:22:27;7.93;;;3.07;;
67861;SDS011;54665;51.462;6.698;2023-08-06T04:24:27;6.20;;;3.47;;
67861;SDS011;54665;51.462;6.698;2023-08-06T04:26:28;6.33;;;3.40;;
67861;SDS011;54665;51.462;6.698;2023-08-06T04:28:28;5.13;;;3.00;;
67861;SDS011;54665;51.462;6.698;2023-08-06T04:30:28;6.10;;;3.10;;
67861;SDS011;54665;51.462;6.698;2023-08-06T04:32:30;6.93;;;3.37;;
67861;SDS011;54665;51.462;6.698;2023-08-06T04:34:31;6.07;;;3.35;;
67861;SDS011;54665;51.462;6.698;2023-08-06T04:36:31;6.27;;;3.27;;
67861;SDS011;54665;51.462;6.698;2023-08-06T04:38:31;8.03;;;3.37;;
67861;SDS011;54665;51.462;6.698;2023-08-06T04:40:35;8.07;;;4.03;;
67861;SDS011;54665;51.462;6.698;2023-08-06T04:42:36;7.20;;;3.72;;
67861;SDS011;54665;51.462;6.698;2023-08-06T04:44:36;7.00;;;3.80;;
67861;SDS011;54665;51.462;6.698;2023-08-06T04:46:36;8.30;;;3.83;;
67861;SDS011;54665;51.462;6.698;2023-08-06T04:48:37;8.57;;;3.90;;
67861;SDS011;54665;51.462;6.698;2023-08-06T04:50:37;8.77;;;3.83;;
67861;SDS011;54665;51.462;6.698;2023-08-06T04:52:37;7.93;;;3.87;;
67861;SDS011;54665;51.462;6.698;2023-08-06T04:54:38;8.63;;;3.60;;
67861;SDS011;54665;51.462;6.698;2023-08-06T04:56:38;6.37;;;3.40;;
67861;SDS011;54665;51.462;6.698;2023-08-06T04:58:38;7.90;;;3.80;;
67861;SDS011;54665;51.462;6.698;2023-08-06T05:00:39;8.70;;;3.70;;
67861;SDS011;54665;51.462;6.698;2023-08-06T05:02:39;7.45;;;3.58;;
67861;SDS011;54665;51.462;6.698;2023-08-06T05:04:39;8.27;;;3.30;;
67861;SDS011;54665;51.462;6.698;2023-08-06T05:06:40;6.03;;;3.10;;
67861;SDS011;54665;51.462;6.698;2023-08-06T05:08:40;9.17;;;3.37;;
67861;SDS011;54665;51.462;6.698;2023-08-06T05:10:42;7.17;;;2.80;;
67861;SDS011;54665;51.462;6.698;2023-08-06T05:12:43;6.70;;;3.30;;
67861;SDS011;54665;51.462;6.698;2023-08-06T05:14:43;8.67;;;2.93;;
67861;SDS011;54665;51.462;6.698;2023-08-06T05:16:43;5.20;;;2.97;;
67861;SDS011;54665;51.462;6.698;2023-08-06T05:18:43;6.87;;;3.00;;
67861;SDS011;54665;51.462;6.698;2023-08-06T05:20:44;6.60;;;3.10;;
67861;SDS011;54665;51.462;6.698;2023-08-06T05:22:44;7.35;;;3.03;;
67861;SDS011;54665;51.462;6.698;2023-08-06T05:24:45;7.23;;;2.90;;
67861;SDS011;54665;51.462;6.698;2023-08-06T05:26:45;6.57;;;3.17;;
67861;SDS011;54665;51.462;6.698;2023-08-06T05:28:45;5.60;;;2.80;;
67861;SDS011;54665;51.462;6.698;2023-08-06T05:30:46;5.82;;;3.08;;
67861;SDS011;54665;51.462;6.698;2023-08-06T05:32:46;5.97;;;2.77;;
67861;SDS011;54665;51.462;6.698;2023-08-06T05:34:46;7.00;;;2.80;;
67861;SDS011;54665;51.462;6.698;2023-08-06T05:36:46;8.97;;;2.70;;
67861;SDS011;54665;51.462;6.698;2023-08-06T05:38:47;6.17;;;2.87;;
67861;SDS011;54665;51.462;6.698;2023-08-06T05:40:47;6.30;;;3.00;;
67861;SDS011;54665;51.462;6.698;2023-08-06T05:42:48;7.70;;;3.27;;
67861;SDS011;54665;51.462;6.698;2023-08-06T05:44:48;8.75;;;3.30;;
67861;SDS011;54665;51.462;6.698;2023-08-06T05:46:49;9.97;;;3.37;;
67861;SDS011;54665;51.462;6.698;2023-08-06T05:48:49;9.77;;;4.00;;
67861;SDS011;54665;51.462;6.698;2023-08-06T05:50:49;11.10;;;4.00;;
67861;SDS011;54665;51.462;6.698;2023-08-06T05:52:50;11.40;;;4.00;;
67861;SDS011;54665;51.462;6.698;2023-08-06T05:54:50;12.87;;;4.40;;
67861;SDS011;54665;51.462;6.698;2023-08-06T05:56:51;9.27;;;3.70;;
67861;SDS011;54665;51.462;6.698;2023-08-06T05:58:51;9.77;;;3.40;;
67861;SDS011;54665;51.462;6.698;2023-08-06T06:00:51;8.60;;;3.20;;
67861;SDS011;54665;51.462;6.698;2023-08-06T06:02:52;7.88;;;3.33;;
67861;SDS011;54665;51.462;6.698;2023-08-06T06:04:52;5.87;;;2.40;;
67861;SDS011;54665;51.462;6.698;2023-08-06T06:06:52;5.37;;;2.27;;
67861;SDS011;54665;51.462;6.698;2023-08-06T06:08:53;6.13;;;2.40;;
67861;SDS011;54665;51.462;6.698;2023-08-06T06:10:53;6.30;;;2.17;;
67861;SDS011;54665;51.462;6.698;2023-08-06T06:12:53;3.80;;;2.07;;
67861;SDS011;54665;51.462;6.698;2023-08-06T06:14:53;3.97;;;2.10;;
67861;SDS011;54665;51.462;6.698;2023-08-06T06:16:54;4.97;;;2.00;;
67861;SDS011;54665;51.462;6.698;2023-08-06T06:18:54;7.03;;;2.50;;
67861;SDS011;54665;51.462;6.698;2023-08-06T06:20:54;3.40;;;2.10;;
67861;SDS011;54665;51.462;6.698;2023-08-06T06:22:54;4.17;;;2.50;;
67861;SDS011;54665;51.462;6.698;2023-08-06T06:24:55;4.57;;;2.40;;
67861;SDS011;54665;51.462;6.698;2023-08-06T06:26:55;3.57;;;2.10;;
67861;SDS011;54665;51.462;6.698;2023-08-06T06:28:55;4.33;;;2.20;;
67861;SDS011;54665;51.462;6.698;2023-08-06T06:31:02;4.73;;;2.53;;
67861;SDS011;54665;51.462;6.698;2023-08-06T06:33:02;7.22;;;2.40;;
67861;SDS011;54665;51.462;6.698;2023-08-06T06:35:03;3.90;;;2.37;;
67861;SDS011;54665;51.462;6.698;2023-08-06T06:37:03;4.50;;;2.70;;
67861;SDS011;54665;51.462;6.698;2023-08-06T06:39:04;5.93;;;2.63;;
67861;SDS011;54665;51.462;6.698;2023-08-06T06:41:04;5.50;;;3.20;;
67861;SDS011;54665;51.462;6.698;2023-08-06T06:43:04;6.25;;;3.13;;
67861;SDS011;54665;51.462;6.698;2023-08-06T06:45:05;6.80;;;3.40;;
67861;SDS011;54665;51.462;6.698;2023-08-06T06:47:06;7.57;;;3.27;;
67861;SDS011;54665;51.462;6.698;2023-08-06T06:49:06;5.80;;;3.70;;
67861;SDS011;54665;51.462;6.698;2023-08-06T06:51:06;7.35;;;3.97;;
67861;SDS011;54665;51.462;6.698;2023-08-06T06:53:06;7.33;;;4.00;;
67861;SDS011;54665;51.462;6.698;2023-08-06T06:55:07;8.57;;;4.30;;
67861;SDS011;54665;51.462;6.698;2023-08-06T06:57:07;7.33;;;4.10;;
67861;SDS011;54665;51.462;6.698;2023-08-06T06:59:08;9.63;;;4.97;;
67861;SDS011;54665;51.462;6.698;2023-08-06T07:01:08;9.10;;;4.60;;
67861;SDS011;54665;51.462;6.698;2023-08-06T07:03:08;7.20;;;4.00;;
67861;SDS011;54665;51.462;6.698;2023-08-06T07:05:09;8.93;;;4.07;;
67861;SDS011;54665;51.462;6.698;2023-08-06T07:07:09;8.23;;;4.30;;
67861;SDS011;54665;51.462;6.698;2023-08-06T07:09:09;6.80;;;4.10;;
67861;SDS011;54665;51.462;6.698;2023-08-06T07:11:09;6.67;;;4.20;;
67861;SDS011;54665;51.462;6.698;2023-08-06T07:13:10;7.77;;;4.00;;
67861;SDS011;54665;51.462;6.698;2023-08-06T07:15:10;8.20;;;4.40;;
67861;SDS011;54665;51.462;6.698;2023-08-06T07:17:11;8.10;;;4.28;;
67861;SDS011;54665;51.462;6.698;2023-08-06T07:19:11;6.53;;;4.23;;
67861;SDS011;54665;51.462;6.698;2023-08-06T07:21:11;7.30;;;4.20;;
67861;SDS011;54665;51.462;6.698;2023-08-06T07:23:11;7.60;;;4.77;;
67861;SDS011;54665;51.462;6.698;2023-08-06T07:25:12;9.13;;;5.40;;
67861;SDS011;54665;51.462;6.698;2023-08-06T07:27:12;8.47;;;5.10;;
67861;SDS011;54665;51.462;6.698;2023-08-06T07:29:12;9.02;;;5.03;;
67861;SDS011;54665;51.462;6.698;2023-08-06T07:31:13;7.90;;;5.03;;
67861;SDS011;54665;51.462;6.698;2023-08-06T07:33:13;7.33;;;5.07;;
67861;SDS011;54665;51.462;6.698;2023-08-06T07:35:13;7.70;;;4.60;;
67861;SDS011;54665;51.462;6.698;2023-08-06T07:37:14;8.73;;;4.70;;
67861;SDS011;54665;51.462;6.698;2023-08-06T07:39:14;9.37;;;4.70;;
67861;SDS011;54665;51.462;6.698;2023-08-06T07:41:14;6.63;;;4.07;;
67861;SDS011;54665;51.462;6.698;2023-08-06T07:43:14;8.83;;;4.20;;
67861;SDS011;54665;51.462;6.698;2023-08-06T07:45:15;6.00;;;3.80;;
67861;SDS011;54665;51.462;6.698;2023-08-06T07:47:15;6.23;;;3.60;;
67861;SDS011;54665;51.462;6.698;2023-08-06T07:49:15;5.10;;;3.60;;
67861;SDS011;54665;51.462;6.698;2023-08-06T07:51:16;6.97;;;3.53;;
67861;SDS011;54665;51.462;6.698;2023-08-06T07:53:16;6.90;;;3.37;;
67861;SDS011;54665;51.462;6.698;2023-08-06T07:55:16;6.43;;;3.30;;
67861;SDS011;54665;51.462;6.698;2023-08-06T07:57:17;6.30;;;3.50;;
67861;SDS011;54665;51.462;6.698;2023-08-06T07:59:17;6.65;;;3.60;;
67861;SDS011;54665;51.462;6.698;2023-08-06T08:01:17;7.60;;;3.50;;
67861;SDS011;54665;51.462;6.698;2023-08-06T08:03:17;5.33;;;3.20;;
67861;SDS011;54665;51.462;6.698;2023-08-06T08:05:18;5.03;;;3.03;;
67861;SDS011;54665;51.462;6.698;2023-08-06T08:07:18;4.67;;;3.07;;
67861;SDS011;54665;51.462;6.698;2023-08-06T08:09:19;4.90;;;3.20;;
67861;SDS011;54665;51.462;6.698;2023-08-06T08:11:20;5.20;;;3.27;;
67861;SDS011;54665;51.462;6.698;2023-08-06T08:13:20;5.55;;;3.40;;
67861;SDS011;54665;51.462;6.698;2023-08-06T08:15:21;5.80;;;3.40;;
67861;SDS011;54665;51.462;6.698;2023-08-06T08:17:21;4.95;;;3.30;;
67861;SDS011;54665;51.462;6.698;2023-08-06T08:19:21;7.17;;;3.80;;
67861;SDS011;54665;51.462;6.698;2023-08-06T08:21:22;10.37;;;4.33;;
67861;SDS011;54665;51.462;6.698;2023-08-06T08:23:22;6.17;;;3.50;;
67861;SDS011;54665;51.462;6.698;2023-08-06T08:25:22;5.90;;;3.20;;
67861;SDS011;54665;51.462;6.698;2023-08-06T08:27:22;2.97;;;2.20;;
67861;SDS011;54665;51.462;6.698;2023-08-06T08:29:23;4.75;;;2.90;;
67861;SDS011;54665;51.462;6.698;2023-08-06T08:31:23;3.30;;;2.60;;
67861;SDS011;54665;51.462;6.698;2023-08-06T08:33:23;3.37;;;2.30;;
67861;SDS011;54665;51.462;6.698;2023-08-06T08:35:24;4.40;;;2.07;;
67861;SDS011;54665;51.462;6.698;2023-08-06T08:37:24;4.13;;;2.50;;
67861;SDS011;54665;51.462;6.698;2023-08-06T08:39:25;3.93;;;2.67;;
67861;SDS011;54665;51.462;6.698;2023-08-06T08:41:27;4.18;;;2.60;;
67861;SDS011;54665;51.462;6.698;2023-08-06T08:43:29;3.83;;;2.50;;
67861;SDS011;54665;51.462;6.698;2023-08-06T08:45:30;3.15;;;2.05;;
67861;SDS011;54665;51.462;6.698;2023-08-06T08:47:34;3.75;;;1.60;;
67861;SDS011;54665;51.462;6.698;2023-08-06T08:49:36;2.65;;;1.40;;
67861;SDS011;54665;51.462;6.698;2023-08-06T08:51:37;3.07;;;1.30;;
67861;SDS011;54665;51.462;6.698;2023-08-06T08:53:38;3.42;;;1.20;;
67861;SDS011;54665;51.462;6.698;2023-08-06T08:55:39;2.78;;;1.23;;
67861;SDS011;54665;51.462;6.698;2023-08-06T08:57:40;3.15;;;1.48;;
67861;SDS011;54665;51.462;6.698;2023-08-06T08:59:41;3.67;;;1.30;;
67861;SDS011;54665;51.462;6.698;2023-08-06T09:01:41;3.57;;;1.60;;
67861;SDS011;54665;51.462;6.698;2023-08-06T09:03:43;3.45;;;1.60;;
67861;SDS011;54665;51.462;6.698;2023-08-06T09:05:44;3.88;;;1.70;;
67861;SDS011;54665;51.462;6.698;2023-08-06T09:07:46;3.93;;;1.90;;
67861;SDS011;54665;51.462;6.698;2023-08-06T09:09:48;4.80;;;2.00;;
67861;SDS011;54665;51.462;6.698;2023-08-06T09:11:49;3.15;;;1.92;;
67861;SDS011;54665;51.462;6.698;2023-08-06T09:13:50;5.63;;;2.40;;
67861;SDS011;54665;51.462;6.698;2023-08-06T09:15:50;4.43;;;2.40;;
67861;SDS011;54665;51.462;6.698;2023-08-06T09:17:53;5.23;;;2.47;;
67861;SDS011;54665;51.462;6.698;2023-08-06T09:19:54;5.67;;;2.70;;
67861;SDS011;54665;51.462;6.698;2023-08-06T09:21:55;5.77;;;2.30;;
67861;SDS011;54665;51.462;6.698;2023-08-06T09:23:56;5.13;;;2.77;;
67861;SDS011;54665;51.462;6.698;2023-08-06T09:25:59;5.57;;;2.90;;
67861;SDS011;54665;51.462;6.698;2023-08-06T09:27:59;5.32;;;3.00;;
67861;SDS011;54665;51.462;6.698;2023-08-06T09:30:00;5.10;;;3.20;;
67861;SDS011;54665;51.462;6.698;2023-08-06T09:32:00;4.60;;;2.83;;
67861;SDS011;54665;51.462;6.698;2023-08-06T09:34:00;5.37;;;3.30;;
67861;SDS011;54665;51.462;6.698;2023-08-06T09:36:10;5.40;;;3.17;;
67861;SDS011;54665;51.462;6.698;2023-08-06T09:38:11;7.00;;;3.42;;
67861;SDS011;54665;51.462;6.698;2023-08-06T09:42:31;5.72;;;4.00;;
67861;SDS011;54665;51.462;6.698;2023-08-06T09:44:32;6.63;;;4.60;;
67861;SDS011;54665;51.462;6.698;2023-08-06T09:46:33;7.60;;;4.85;;
67861;SDS011;54665;51.462;6.698;2023-08-06T09:48:34;10.03;;;5.33;;
67861;SDS011;54665;51.462;6.698;2023-08-06T09:50:35;9.20;;;5.67;;
67861;SDS011;54665;51.462;6.698;2023-08-06T09:52:36;11.45;;;6.10;;
67861;SDS011;54665;51.462;6.698;2023-08-06T09:54:36;8.87;;;5.77;;
67861;SDS011;54665;51.462;6.698;2023-08-06T09:56:37;10.98;;;6.38;;
67861;SDS011;54665;51.462;6.698;2023-08-06T09:58:38;9.60;;;6.00;;
67861;SDS011;54665;51.462;6.698;2023-08-06T10:00:39;11.97;;;6.13;;
67861;SDS011;54665;51.462;6.698;2023-08-06T10:02:40;12.90;;;6.50;;
67861;SDS011;54665;51.462;6.698;2023-08-06T10:04:42;10.23;;;6.07;;
67861;SDS011;54665;51.462;6.698;2023-08-06T10:06:46;9.47;;;5.67;;
67861;SDS011;54665;51.462;6.698;2023-08-06T10:08:47;8.15;;;5.60;;
67861;SDS011;54665;51.462;6.698;2023-08-06T10:10:47;10.23;;;6.43;;
67861;SDS011;54665;51.462;6.698;2023-08-06T10:12:49;11.07;;;6.47;;
67861;SDS011;54665;51.462;6.698;2023-08-06T10:14:52;8.48;;;5.95;;
67861;SDS011;54665;51.462;6.698;2023-08-06T10:16:54;9.35;;;6.00;;
67861;SDS011;54665;51.462;6.698;2023-08-06T10:18:58;9.75;;;6.22;;
67861;SDS011;54665;51.462;6.698;2023-08-06T10:21:00;9.35;;;5.57;;
67861;SDS011;54665;51.462;6.698;2023-08-06T10:23:01;10.73;;;5.87;;
67861;SDS011;54665;51.462;6.698;2023-08-06T10:25:03;8.60;;;6.15;;
67861;SDS011;54665;51.462;6.698;2023-08-06T10:27:04;9.67;;;6.87;;
67861;SDS011;54665;51.462;6.698;2023-08-06T10:29:34;9.75;;;6.60;;
67861;SDS011;54665;51.462;6.698;2023-08-06T10:31:59;10.13;;;6.10;;
67861;SDS011;54665;51.462;6.698;2023-08-06T10:33:59;9.32;;;6.32;;
67861;SDS011;54665;51.462;6.698;2023-08-06T10:36:01;9.97;;;7.00;;
67861;SDS011;54665;51.462;6.698;2023-08-06T10:40:21;7.05;;;4.63;;
67861;SDS011;54665;51.462;6.698;2023-08-06T10:42:22;6.73;;;3.83;;
67861;SDS011;54665;51.462;6.698;2023-08-06T10:44:26;6.60;;;3.92;;
67861;SDS011;54665;51.462;6.698;2023-08-06T10:46:27;3.20;;;1.77;;
67861;SDS011;54665;51.462;6.698;2023-08-06T10:48:34;2.30;;;1.40;;
67861;SDS011;54665;51.462;6.698;2023-08-06T10:50:35;1.70;;;1.02;;
67861;SDS011;54665;51.462;6.698;2023-08-06T10:52:35;1.80;;;1.10;;
67861;SDS011;54665;51.462;6.698;2023-08-06T10:54:36;2.10;;;1.00;;
67861;SDS011;54665;51.462;6.698;2023-08-06T10:56:39;1.60;;;1.00;;
67861;SDS011;54665;51.462;6.698;2023-08-06T10:58:40;2.55;;;0.98;;
67861;SDS011;54665;51.462;6.698;2023-08-06T11:00:42;2.13;;;0.70;;
67861;SDS011;54665;51.462;6.698;2023-08-06T11:02:42;2.67;;;0.90;;
67861;SDS011;54665;51.462;6.698;2023-08-06T11:04:43;0.98;;;0.47;;
67861;SDS011;54665;51.462;6.698;2023-08-06T11:06:43;2.13;;;0.90;;
67861;SDS011;54665;51.462;6.698;2023-08-06T11:08:47;1.50;;;0.90;;
67861;SDS011;54665;51.462;6.698;2023-08-06T11:10:48;1.80;;;1.02;;
67861;SDS011;54665;51.462;6.698;2023-08-06T11:12:48;2.37;;;1.10;;
67861;SDS011;54665;51.462;6.698;2023-08-06T11:14:49;7.27;;;1.47;;
67861;SDS011;54665;51.462;6.698;2023-08-06T11:16:50;4.47;;;1.40;;
67861;SDS011;54665;51.462;6.698;2023-08-06T11:18:51;2.37;;;1.20;;
67861;SDS011;54665;51.462;6.698;2023-08-06T11:20:51;2.27;;;1.40;;
67861;SDS011;54665;51.462;6.698;2023-08-06T11:22:51;3.30;;;1.47;;
67861;SDS011;54665;51.462;6.698;2023-08-06T11:24:52;2.90;;;1.45;;
67861;SDS011;54665;51.462;6.698;2023-08-06T11:26:53;3.10;;;1.37;;
67861;SDS011;54665;51.462;6.698;2023-08-06T11:28:53;3.60;;;1.40;;
67861;SDS011;54665;51.462;6.698;2023-08-06T11:30:54;3.67;;;1.60;;
67861;SDS011;54665;51.462;6.698;2023-08-06T11:32:54;2.53;;;1.40;;
67861;SDS011;54665;51.462;6.698;2023-08-06T11:34:56;5.60;;;1.63;;
67861;SDS011;54665;51.462;6.698;2023-08-06T11:36:56;3.90;;;1.60;;
67861;SDS011;54665;51.462;6.698;2023-08-06T11:38:58;2.83;;;1.67;;
67861;SDS011;54665;51.462;6.698;2023-08-06T11:40:59;2.55;;;1.50;;
67861;SDS011;54665;51.462;6.698;2023-08-06T11:42:59;3.27;;;1.47;;
67861;SDS011;54665;51.462;6.698;2023-08-06T11:45:00;2.63;;;1.40;;
67861;SDS011;54665;51.462;6.698;2023-08-06T11:47:03;1.80;;;1.00;;
67861;SDS011;54665;51.462;6.698;2023-08-06T11:49:04;2.00;;;1.10;;
67861;SDS011;54665;51.462;6.698;2023-08-06T11:51:04;1.90;;;0.80;;
67861;SDS011;54665;51.462;6.698;2023-08-06T11:53:13;1.65;;;0.90;;
67861;SDS011;54665;51.462;6.698;2023-08-06T11:55:14;1.10;;;0.50;;
67861;SDS011;54665;51.462;6.698;2023-08-06T11:57:15;1.83;;;0.70;;
67861;SDS011;54665;51.462;6.698;2023-08-06T11:59:15;1.13;;;0.57;;
67861;SDS011;54665;51.462;6.698;2023-08-06T12:01:15;1.30;;;0.60;;
67861;SDS011;54665;51.462;6.698;2023-08-06T12:03:18;1.03;;;0.50;;
67861;SDS011;54665;51.462;6.698;2023-08-06T12:05:19;1.40;;;0.60;;
67861;SDS011;54665;51.462;6.698;2023-08-06T12:07:20;1.10;;;0.60;;
67861;SDS011;54665;51.462;6.698;2023-08-06T12:09:26;2.13;;;0.70;;
67861;SDS011;54665;51.462;6.698;2023-08-06T12:11:26;1.47;;;0.60;;
67861;SDS011;54665;51.462;6.698;2023-08-06T12:13:27;1.43;;;0.60;;
67861;SDS011;54665;51.462;6.698;2023-08-06T12:15:27;0.97;;;0.50;;
67861;SDS011;54665;51.462;6.698;2023-08-06T12:17:27;1.20;;;0.80;;
67861;SDS011;54665;51.462;6.698;2023-08-06T12:19:28;2.37;;;1.00;;
67861;SDS011;54665;51.462;6.698;2023-08-06T12:21:28;2.10;;;0.95;;
67861;SDS011;54665;51.462;6.698;2023-08-06T12:23:28;1.87;;;1.07;;
67861;SDS011;54665;51.462;6.698;2023-08-06T12:25:29;1.90;;;1.13;;
67861;SDS011;54665;51.462;6.698;2023-08-06T12:27:29;1.77;;;0.90;;
67861;SDS011;54665;51.462;6.698;2023-08-06T12:29:29;2.50;;;1.20;;
67861;SDS011;54665;51.462;6.698;2023-08-06T12:31:30;2.40;;;1.30;;
67861;SDS011;54665;51.462;6.698;2023-08-06T12:33:30;2.77;;;1.60;;
67861;SDS011;54665;51.462;6.698;2023-08-06T12:35:30;2.53;;;1.50;;
67861;SDS011;54665;51.462;6.698;2023-08-06T12:37:30;2.60;;;1.53;;
67861;SDS011;54665;51.462;6.698;2023-08-06T12:39:31;2.67;;;1.60;;
67861;SDS011;54665;51.462;6.698;2023-08-06T12:41:31;2.27;;;1.47;;
67861;SDS011;54665;51.462;6.698;2023-08-06T12:43:32;2.83;;;1.50;;
67861;SDS011;54665;51.462;6.698;2023-08-06T12:45:32;5.47;;;2.00;;
67861;SDS011;54665;51.462;6.698;2023-08-06T12:47:32;2.00;;;1.23;;
67861;SDS011;54665;51.462;6.698;2023-08-06T12:49:33;3.70;;;1.93;;
67861;SDS011;54665;51.462;6.698;2023-08-06T12:51:33;2.97;;;1.73;;
67861;SDS011;54665;51.462;6.698;2023-08-06T12:53:33;2.90;;;1.90;;
67861;SDS011;54665;51.462;6.698;2023-08-06T12:55:34;3.23;;;1.90;;
67861;SDS011;54665;51.462;6.698;2023-08-06T12:57:34;3.03;;;1.63;;
67861;SDS011;54665;51.462;6.698;2023-08-06T12:59:34;3.17;;;1.85;;
67861;SDS011;54665;51.462;6.698;2023-08-06T13:01:34;3.70;;;2.33;;
67861;SDS011;54665;51.462;6.698;2023-08-06T13:03:35;3.33;;;1.87;;
67861;SDS011;54665;51.462;6.698;2023-08-06T13:05:35;5.43;;;2.80;;
67861;SDS011;54665;51.462;6.698;2023-08-06T13:07:35;5.43;;;3.17;;
67861;SDS011;54665;51.462;6.698;2023-08-06T13:09:36;5.27;;;2.53;;
67861;SDS011;54665;51.462;6.698;2023-08-06T13:11:36;6.00;;;3.00;;
67861;SDS011;54665;51.462;6.698;2023-08-06T13:13:37;6.18;;;3.05;;
67861;SDS011;54665;51.462;6.698;2023-08-06T13:15:38;5.40;;;3.50;;
67861;SDS011;54665;51.462;6.698;2023-08-06T13:17:38;6.60;;;3.43;;
67861;SDS011;54665;51.462;6.698;2023-08-06T13:19:38;5.50;;;3.20;;
67861;SDS011;54665;51.462;6.698;2023-08-06T13:23:42;3.40;;;1.80;;
67861;SDS011;54665;51.462;6.698;2023-08-06T13:25:42;4.23;;;2.00;;
67861;SDS011;54665;51.462;6.698;2023-08-06T13:27:43;4.20;;;2.05;;